createdAt,value
2022-11-29T00:04:58.476Z,45.70
2022-11-29T00:10:03.106Z,34.08
2022-11-29T00:15:06.873Z,39.17
2022-11-29T00:20:12.048Z,36.72
2022-11-29T00:25:17.082Z,41.25
2022-11-29T00:30:20.941Z,33.83
2022-11-29T00:35:24.009Z,42.65
2022-11-29T00:40:28.724Z,36.08
2022-11-29T00:45:31.840Z,38.50
2022-11-29T00:50:35.031Z,42.30
2022-11-29T00:55:39.710Z,40.85
2022-11-29T01:00:43.267Z,45.75
2022-11-29T01:05:46.666Z,34.50
2022-11-29T01:11:01.650Z,43.92
2022-11-29T01:16:05.915Z,38.72
2022-11-29T01:21:11.093Z,32.70
2022-11-29T01:26:17.746Z,33.75
2022-11-29T01:31:22.965Z,38.08
2022-11-29T01:41:33.557Z,31.73
2022-11-29T01:46:38.655Z,38.47
2022-11-29T01:51:45.759Z,42.40
2022-11-29T01:56:51.921Z,37.63
2022-11-29T02:02:01.341Z,36.20
2022-11-29T02:07:05.000Z,38.65
2022-11-29T02:12:21.268Z,39.50
2022-11-29T02:17:33.045Z,37.22
2022-11-29T02:22:41.511Z,36.58
2022-11-29T02:28:21.688Z,43.47
2022-11-29T02:33:41.095Z,37.83
2022-11-29T02:39:14.317Z,30.85
2022-11-29T02:44:38.830Z,39.00
2022-11-29T02:50:04.404Z,40.88
2022-11-29T02:55:12.939Z,41.88
2022-11-29T03:00:20.046Z,44.88
2022-11-29T03:05:34.217Z,41.03
2022-11-29T03:10:45.272Z,43.87
2022-11-29T03:15:57.287Z,34.05
2022-11-29T03:21:09.809Z,35.30
2022-11-29T03:26:17.576Z,36.00
2022-11-29T03:31:28.731Z,37.15
2022-11-29T03:36:42.311Z,41.05
2022-11-29T03:41:49.339Z,34.28
2022-11-29T03:46:57.537Z,34.92
2022-11-29T03:52:08.880Z,50.45
2022-11-29T03:57:16.655Z,46.00
2022-11-29T04:02:46.544Z,47.83
2022-11-29T04:08:14.591Z,39.83
2022-11-29T04:13:46.991Z,41.30
2022-11-29T04:19:09.708Z,42.50
2022-11-29T04:24:46.093Z,44.58
2022-11-29T04:30:05.857Z,32.10
2022-11-29T04:35:30.520Z,43.90
2022-11-29T04:40:57.078Z,43.85
2022-11-29T04:46:31.613Z,34.97
2022-11-29T04:51:49.051Z,48.15
2022-11-29T04:56:59.672Z,40.80
2022-11-29T05:02:12.740Z,39.47
2022-11-29T05:07:25.275Z,42.55
2022-11-29T05:12:35.391Z,44.78
2022-11-29T05:17:50.465Z,35.30
2022-11-29T05:23:10.808Z,40.47
2022-11-29T05:28:24.634Z,40.28
2022-11-29T05:33:47.750Z,41.95
2022-11-29T05:39:02.291Z,49.53
2022-11-29T05:44:12.525Z,32.58
2022-11-29T05:49:27.256Z,35.63
2022-11-29T05:54:34.913Z,41.08
2022-11-29T05:59:39.123Z,41.47
2022-11-29T06:05:07.620Z,42.20
2022-11-29T06:10:15.111Z,37.45
2022-11-29T06:15:56.762Z,47.22
2022-11-29T06:21:14.759Z,40.30
2022-11-29T06:26:34.166Z,51.38
2022-11-29T06:31:43.536Z,46.05
2022-11-29T06:36:53.583Z,43.03
2022-11-29T06:41:56.846Z,38.60
2022-11-29T06:47:06.793Z,51.75
2022-11-29T06:52:22.774Z,36.30
2022-11-29T06:57:36.821Z,32.10
2022-11-29T07:03:12.994Z,44.47
2022-11-29T07:08:21.554Z,39.00
2022-11-29T07:13:29.716Z,36.78
2022-11-29T07:18:43.886Z,42.65
2022-11-29T07:23:55.981Z,41.15
2022-11-29T07:29:12.313Z,42.53
2022-11-29T07:34:24.102Z,44.53
2022-11-29T07:39:38.609Z,45.45
2022-11-29T07:44:51.973Z,41.30
2022-11-29T07:49:55.634Z,36.80
2022-11-29T07:55:01.360Z,46.75
2022-11-29T08:00:06.302Z,34.85
2022-11-29T08:05:14.837Z,34.90
2022-11-29T08:10:19.777Z,37.05
2022-11-29T08:15:23.939Z,39.43
2022-11-29T08:20:27.907Z,40.25
2022-11-29T08:25:32.496Z,43.55
2022-11-29T08:30:36.117Z,45.97
2022-11-29T08:35:39.979Z,33.00
2022-11-29T08:40:44.962Z,43.22
2022-11-29T08:45:51.792Z,32.22
2022-11-29T08:50:56.739Z,39.72
2022-11-29T08:56:08.488Z,44.78
2022-11-29T09:01:25.295Z,44.00
2022-11-29T09:06:30.362Z,45.05
2022-11-29T09:11:36.055Z,40.30
2022-11-29T09:21:42.761Z,49.17
2022-11-29T09:26:49.966Z,44.47
2022-11-29T09:31:54.127Z,44.58
2022-11-29T09:36:57.589Z,38.72
2022-11-29T09:42:42.029Z,43.03
2022-11-29T09:48:20.397Z,36.55
2022-11-29T09:53:44.694Z,33.58
2022-11-29T09:58:53.494Z,35.78
2022-11-29T10:04:01.012Z,40.22
2022-11-29T10:09:08.331Z,40.08
2022-11-29T10:14:18.331Z,47.25
2022-11-29T10:19:27.754Z,37.63
2022-11-29T10:24:32.779Z,41.38
2022-11-29T10:29:38.349Z,46.60
2022-11-29T10:34:42.742Z,39.75
2022-11-29T10:39:49.083Z,37.40
2022-11-29T10:44:53.644Z,41.53
2022-11-29T10:49:57.316Z,41.93
2022-11-29T10:55:01.841Z,44.50
2022-11-29T11:00:10.392Z,42.92
2022-11-29T11:05:19.423Z,45.13
2022-11-29T11:10:28.016Z,40.75
2022-11-29T11:15:33.192Z,41.92
2022-11-29T11:20:40.518Z,39.30
2022-11-29T11:25:45.736Z,40.85
2022-11-29T11:30:53.690Z,40.13
2022-11-29T11:36:03.183Z,35.30
2022-11-29T11:41:18.997Z,45.20
2022-11-29T11:46:24.446Z,46.83
2022-11-29T11:56:36.079Z,47.00
2022-11-29T12:01:40.866Z,32.67
2022-11-29T12:06:51.776Z,39.50
2022-11-29T12:12:05.537Z,43.15
2022-11-29T12:17:20.316Z,44.03
2022-11-29T12:22:28.808Z,47.58
2022-11-29T12:27:32.747Z,50.58
2022-11-29T12:33:09.703Z,42.67
2022-11-29T12:38:26.930Z,44.47
2022-11-29T12:43:41.730Z,39.03
2022-11-29T12:48:56.680Z,45.17
2022-11-29T12:54:16.332Z,43.60
2022-11-29T12:59:32.858Z,48.03
2022-11-29T13:04:44.372Z,39.03
2022-11-29T13:10:16.364Z,40.58
2022-11-29T13:15:24.780Z,42.28
2022-11-29T13:20:40.331Z,49.90
2022-11-29T13:25:47.112Z,44.72
2022-11-29T13:30:51.751Z,36.75
2022-11-29T13:36:08.632Z,62.35
2022-11-29T13:41:21.409Z,44.58
2022-11-29T13:46:32.955Z,45.75
2022-11-29T13:51:38.155Z,47.70
2022-11-29T13:56:48.542Z,46.50
2022-11-29T14:01:54.026Z,37.70
2022-11-29T14:07:11.489Z,48.60
2022-11-29T14:12:27.672Z,50.65
2022-11-29T14:17:47.458Z,48.67
2022-11-29T14:23:14.740Z,50.75
2022-11-29T14:28:31.441Z,46.30
2022-11-29T14:33:53.081Z,56.85
2022-11-29T14:39:07.816Z,50.30
2022-11-29T14:44:18.606Z,44.58
2022-11-29T14:49:24.432Z,42.72
2022-11-29T14:54:29.478Z,45.03
2022-11-29T14:59:51.528Z,48.55
2022-11-29T15:04:56.709Z,51.63
2022-11-29T15:10:04.230Z,43.33
2022-11-29T15:15:23.700Z,45.63
2022-11-29T15:20:42.730Z,42.92
2022-11-29T15:25:49.896Z,51.55
2022-11-29T15:31:02.759Z,48.08
2022-11-29T15:36:08.567Z,44.05
2022-11-29T15:41:22.127Z,44.38
2022-11-29T15:46:27.894Z,47.90
2022-11-29T15:51:36.191Z,49.80
2022-11-29T15:56:45.280Z,51.40
2022-11-29T16:01:51.124Z,46.97
2022-11-29T16:06:55.271Z,51.72
2022-11-29T16:12:01.550Z,47.33
2022-11-29T16:17:05.488Z,49.97
2022-11-29T16:22:15.546Z,54.50
2022-11-29T16:27:22.040Z,65.82
2022-11-29T16:32:29.259Z,53.92
2022-11-29T16:37:39.777Z,51.08
2022-11-29T16:43:05.466Z,58.25
2022-11-29T16:48:29.386Z,42.47
2022-11-29T16:53:35.358Z,60.20
2022-11-29T16:59:20.579Z,53.15
2022-11-29T17:04:05.266Z,57.60
2022-11-29T17:09:19.213Z,49.20
2022-11-29T17:14:24.147Z,48.38
2022-11-29T17:19:29.091Z,49.95
2022-11-29T17:24:32.357Z,50.53
2022-11-29T17:29:37.114Z,55.08
2022-11-29T17:34:40.456Z,58.90
2022-11-29T17:39:47.291Z,55.35
2022-11-29T17:44:52.335Z,56.40
2022-11-29T17:49:55.697Z,54.22
2022-11-29T17:54:59.180Z,56.20
2022-11-29T18:00:06.771Z,73.57
2022-11-29T18:05:10.236Z,57.33
2022-11-29T18:10:13.527Z,56.80
2022-11-29T18:15:18.417Z,58.10
2022-11-29T18:20:22.069Z,50.13
2022-11-29T18:25:40.635Z,62.13
2022-11-29T18:30:45.343Z,52.08
2022-11-29T18:35:48.931Z,52.80
2022-11-29T18:40:52.246Z,50.00
2022-11-29T18:45:57.032Z,53.67
2022-11-29T18:51:02.186Z,57.42
2022-11-29T18:56:07.573Z,54.58
2022-11-29T19:01:14.845Z,58.20
2022-11-29T19:06:20.331Z,58.15
2022-11-29T19:16:31.071Z,56.90
2022-11-29T19:21:34.704Z,53.88
2022-11-29T19:26:38.114Z,55.70
2022-11-29T19:31:43.070Z,55.97
2022-11-29T19:36:46.589Z,54.35
2022-11-29T19:41:50.001Z,56.60
2022-11-29T19:46:56.212Z,51.53
2022-11-29T19:51:59.635Z,63.88
2022-11-29T19:57:03.440Z,62.05
2022-11-29T20:02:10.694Z,57.78
2022-11-29T20:07:14.378Z,55.45
2022-11-29T20:12:17.682Z,56.28
2022-11-29T20:17:22.325Z,62.50
2022-11-29T20:22:25.678Z,60.28
2022-11-29T20:27:29.484Z,56.20
2022-11-29T20:32:35.215Z,54.33
2022-11-29T20:38:00.264Z,46.67
2022-11-29T20:48:19.109Z,53.78
2022-11-29T20:53:31.668Z,63.67
2022-11-29T20:58:35.300Z,53.85
2022-11-29T21:03:40.102Z,56.00
2022-11-29T21:08:43.731Z,51.33
2022-11-29T21:13:47.922Z,55.80
2022-11-29T21:18:56.705Z,61.78
2022-11-29T21:24:05.350Z,49.22
2022-11-29T21:29:15.458Z,71.40
2022-11-29T21:34:20.670Z,61.20
2022-11-29T21:39:30.322Z,57.83
2022-11-29T21:44:33.686Z,50.83
2022-11-29T21:49:38.457Z,59.40
2022-11-29T21:54:41.905Z,58.47
2022-11-29T21:59:45.077Z,66.53
2022-11-29T22:04:50.145Z,60.38
2022-11-29T22:09:53.977Z,59.97
2022-11-29T22:14:58.048Z,52.60
2022-11-29T22:20:03.673Z,54.95
2022-11-29T22:25:08.742Z,59.95
2022-11-29T22:30:13.144Z,54.93
2022-11-29T22:35:18.431Z,50.10
2022-11-29T22:40:23.546Z,63.65
2022-11-29T22:45:28.203Z,63.47
2022-11-29T22:50:32.882Z,58.60
2022-11-29T22:55:36.153Z,60.03
2022-11-29T23:00:44.045Z,59.10
2022-11-29T23:05:49.893Z,57.78
2022-11-29T23:10:56.233Z,59.90
2022-11-29T23:16:00.409Z,66.40
2022-11-29T23:21:07.034Z,56.08
2022-11-29T23:26:17.830Z,61.30
2022-11-29T23:31:22.549Z,71.13
2022-11-29T23:36:27.680Z,56.50
2022-11-29T23:41:30.948Z,61.17
2022-11-29T23:46:35.173Z,57.30
2022-11-29T23:51:39.904Z,69.50
2022-11-29T23:56:43.108Z,66.40
